createdAt,value
2023-02-25T00:00:31.497Z,24.88
2023-02-25T00:03:36.667Z,97.60
2023-02-25T00:06:40.717Z,54.13
2023-02-25T00:09:45.122Z,63.13
2023-02-25T00:12:49.493Z,42.00
2023-02-25T00:15:53.850Z,31.67
2023-02-25T00:18:58.998Z,44.60
2023-02-25T00:22:02.858Z,67.25
2023-02-25T00:25:07.832Z,64.03
2023-02-25T00:28:12.212Z,66.22
2023-02-25T00:31:43.293Z,33.22
2023-02-25T00:34:53.390Z,64.18
2023-02-25T00:38:13.700Z,40.33
2023-02-25T00:41:23.224Z,20.35
2023-02-25T00:44:27.546Z,14.88
2023-02-25T00:47:32.382Z,13.10
2023-02-25T00:50:40.452Z,112.60
2023-02-25T00:53:45.944Z,26.02
2023-02-25T00:56:50.287Z,10.30
2023-02-25T00:59:54.191Z,18.77
2023-02-25T01:02:59.963Z,12.35
2023-02-25T01:06:04.449Z,12.70
2023-02-25T01:09:14.842Z,10.00
2023-02-25T01:12:19.215Z,12.70
2023-02-25T01:15:23.265Z,12.80
2023-02-25T01:18:28.366Z,10.40
2023-02-25T01:21:36.923Z,9.00
2023-02-25T01:24:41.209Z,8.70
2023-02-25T01:27:47.695Z,8.02
2023-02-25T01:30:52.104Z,7.63
2023-02-25T01:34:04.132Z,6.45
2023-02-25T01:37:17.973Z,6.18
2023-02-25T01:40:27.790Z,5.38
2023-02-25T01:43:32.344Z,6.63
2023-02-25T01:46:38.347Z,5.40
2023-02-25T01:49:47.419Z,5.55
2023-02-25T01:52:52.459Z,10.50
2023-02-25T01:55:57.761Z,8.52
2023-02-25T01:59:02.610Z,8.48
2023-02-25T02:02:09.406Z,5.03
2023-02-25T02:05:14.200Z,7.88
2023-02-25T02:11:23.466Z,4.60
2023-02-25T02:14:35.607Z,5.75
2023-02-25T02:18:00.561Z,4.45
2023-02-25T02:21:18.752Z,5.20
2023-02-25T02:24:33.822Z,5.22
2023-02-25T02:28:03.216Z,5.32
2023-02-25T02:31:10.530Z,6.20
2023-02-25T02:34:41.632Z,8.27
2023-02-25T02:37:56.629Z,4.80
2023-02-25T02:41:37.745Z,5.32
2023-02-25T02:44:57.179Z,18.08
2023-02-25T02:48:37.599Z,12.45
2023-02-25T02:51:50.973Z,4.22
2023-02-25T02:55:03.414Z,4.00
2023-02-25T02:58:14.435Z,3.65
2023-02-25T03:01:28.150Z,10.45
2023-02-25T03:04:36.916Z,6.05
2023-02-25T03:07:52.330Z,3.53
2023-02-25T03:10:56.871Z,4.20
2023-02-25T03:14:01.664Z,8.23
2023-02-25T03:17:13.203Z,15.70
2023-02-25T03:20:25.335Z,5.03
2023-02-25T03:23:33.610Z,3.83
2023-02-25T03:26:39.505Z,2.92
2023-02-25T03:29:44.084Z,6.10
2023-02-25T03:33:00.635Z,8.80
2023-02-25T03:36:14.218Z,6.28
2023-02-25T03:39:22.043Z,10.02
2023-02-25T03:42:36.213Z,5.50
2023-02-25T03:45:46.277Z,9.68
2023-02-25T03:48:53.703Z,5.88
2023-02-25T03:52:01.271Z,8.45
2023-02-25T03:55:07.275Z,7.00
2023-02-25T03:58:11.935Z,6.35
2023-02-25T04:01:31.488Z,11.73
2023-02-25T04:04:36.218Z,8.52
2023-02-25T04:07:41.042Z,3.47
2023-02-25T04:10:45.629Z,3.90
2023-02-25T04:13:51.561Z,5.40
2023-02-25T04:16:56.764Z,5.93
2023-02-25T04:20:01.212Z,3.53
2023-02-25T04:23:06.913Z,4.22
2023-02-25T04:26:11.299Z,3.92
2023-02-25T04:29:16.330Z,4.00
2023-02-25T04:32:20.601Z,4.63
2023-02-25T04:35:25.659Z,4.72
2023-02-25T04:38:30.169Z,31.70
2023-02-25T04:41:36.975Z,5.53
2023-02-25T04:44:51.485Z,3.38
2023-02-25T04:48:00.173Z,15.80
2023-02-25T04:51:05.017Z,8.38
2023-02-25T04:54:09.635Z,22.65
2023-02-25T04:57:14.051Z,4.70
2023-02-25T05:00:21.594Z,6.38
2023-02-25T05:03:26.596Z,6.30
2023-02-25T05:06:31.540Z,5.10
2023-02-25T05:09:36.031Z,3.00
2023-02-25T05:12:40.401Z,10.90
2023-02-25T05:15:45.246Z,8.15
2023-02-25T05:18:50.384Z,12.60
2023-02-25T05:21:55.682Z,3.25
2023-02-25T05:25:00.037Z,90.55
2023-02-25T05:28:07.296Z,39.10
2023-02-25T05:31:13.708Z,6.40
2023-02-25T05:34:18.997Z,5.28
2023-02-25T05:37:25.086Z,43.17
2023-02-25T05:40:29.402Z,3.42
2023-02-25T05:43:34.801Z,14.50
2023-02-25T05:46:39.478Z,7.18
2023-02-25T05:49:44.473Z,6.85
2023-02-25T05:52:49.126Z,6.22
2023-02-25T05:55:53.723Z,5.53
2023-02-25T05:58:58.366Z,4.72
2023-02-25T06:02:02.586Z,5.35
2023-02-25T06:05:07.651Z,6.22
2023-02-25T06:08:12.992Z,10.55
2023-02-25T06:11:25.880Z,4.38
2023-02-25T06:14:30.179Z,3.22
2023-02-25T06:17:34.960Z,11.90
2023-02-25T06:20:39.120Z,14.20
2023-02-25T06:23:45.160Z,6.50
2023-02-25T06:26:49.424Z,5.80
2023-02-25T06:29:53.534Z,8.57
2023-02-25T06:32:57.566Z,7.20
2023-02-25T06:36:02.128Z,16.42
2023-02-25T06:39:06.493Z,12.73
2023-02-25T06:42:11.754Z,17.98
2023-02-25T06:45:16.996Z,12.10
2023-02-25T06:48:21.573Z,5.15
2023-02-25T06:51:26.707Z,6.05
2023-02-25T06:54:31.144Z,17.92
2023-02-25T06:57:36.172Z,7.63
2023-02-25T07:00:43.941Z,10.65
2023-02-25T07:03:48.316Z,7.43
2023-02-25T07:06:52.560Z,7.28
2023-02-25T07:09:56.848Z,7.75
2023-02-25T07:13:00.870Z,4.18
2023-02-25T07:16:04.907Z,23.15
2023-02-25T07:19:09.574Z,20.27
2023-02-25T07:22:18.150Z,5.40
2023-02-25T07:25:22.701Z,7.35
2023-02-25T07:28:26.988Z,3.38
2023-02-25T07:31:31.534Z,12.82
2023-02-25T07:34:39.970Z,16.00
2023-02-25T07:37:44.344Z,23.25
2023-02-25T07:40:49.399Z,13.70
2023-02-25T07:43:53.573Z,8.30
2023-02-25T07:46:59.531Z,7.53
2023-02-25T07:50:04.254Z,6.90
2023-02-25T07:53:08.589Z,25.27
2023-02-25T07:56:13.655Z,10.52
2023-02-25T07:59:18.090Z,12.73
2023-02-25T08:02:22.560Z,19.73
2023-02-25T08:05:30.082Z,10.57
2023-02-25T08:08:35.945Z,5.03
2023-02-25T08:11:43.154Z,6.68
2023-02-25T08:14:47.568Z,7.50
2023-02-25T08:17:53.319Z,6.43
2023-02-25T08:24:06.962Z,9.88
2023-02-25T08:27:11.503Z,6.45
2023-02-25T08:30:16.196Z,42.85
2023-02-25T08:33:21.100Z,7.30
2023-02-25T08:36:32.078Z,15.30
2023-02-25T08:39:36.777Z,52.65
2023-02-25T08:42:40.580Z,14.40
2023-02-25T08:45:44.575Z,8.98
2023-02-25T08:48:51.243Z,9.55
2023-02-25T08:51:55.788Z,12.60
2023-02-25T08:55:03.314Z,9.13
2023-02-25T08:58:08.526Z,15.43
2023-02-25T09:01:17.614Z,11.55
2023-02-25T09:04:24.597Z,12.73
2023-02-25T09:07:28.627Z,15.23
2023-02-25T09:10:48.207Z,54.80
2023-02-25T09:13:54.993Z,74.53
2023-02-25T09:16:59.856Z,32.58
2023-02-25T09:20:08.030Z,23.17
2023-02-25T09:23:12.621Z,13.43
2023-02-25T09:26:18.266Z,27.63
2023-02-25T09:29:23.204Z,15.40
2023-02-25T09:32:27.420Z,17.85
2023-02-25T09:35:32.599Z,18.50
2023-02-25T09:38:37.952Z,21.23
2023-02-25T09:41:46.088Z,19.77
2023-02-25T09:45:02.125Z,14.75
2023-02-25T09:48:17.329Z,9.52
2023-02-25T09:51:35.539Z,8.98
2023-02-25T09:54:45.815Z,7.07
2023-02-25T09:58:05.277Z,7.70
2023-02-25T10:01:14.017Z,18.23
2023-02-25T10:04:28.477Z,19.15
2023-02-25T10:07:54.062Z,16.42
2023-02-25T10:11:03.039Z,22.67
2023-02-25T10:14:39.433Z,30.80
2023-02-25T10:17:56.284Z,45.00
2023-02-25T10:21:25.509Z,38.78
2023-02-25T10:24:49.638Z,49.58
2023-02-25T10:28:08.772Z,55.88
2023-02-25T10:31:19.677Z,43.35
2023-02-25T10:34:28.206Z,40.47
2023-02-25T10:37:35.903Z,37.35
2023-02-25T10:40:42.015Z,36.92
2023-02-25T10:43:47.809Z,78.05
2023-02-25T10:46:56.946Z,48.60
2023-02-25T10:50:38.832Z,79.88
2023-02-25T10:54:07.283Z,73.93
2023-02-25T10:57:17.917Z,66.55
2023-02-25T11:00:28.764Z,81.80
2023-02-25T11:03:37.826Z,81.50
2023-02-25T11:07:24.321Z,77.20
2023-02-25T11:10:35.949Z,66.55
2023-02-25T11:14:19.673Z,69.50
2023-02-25T11:17:24.413Z,65.57
2023-02-25T11:20:33.165Z,71.15
2023-02-25T11:23:47.961Z,77.95
2023-02-25T11:26:53.819Z,102.78
2023-02-25T11:30:13.873Z,102.03
2023-02-25T11:33:45.755Z,84.03
2023-02-25T11:36:51.279Z,72.40
2023-02-25T11:43:28.607Z,63.50
2023-02-25T11:46:34.843Z,55.25
2023-02-25T11:49:54.348Z,53.65
2023-02-25T11:53:23.012Z,54.95
2023-02-25T11:56:35.042Z,60.97
2023-02-25T12:00:23.878Z,58.28
2023-02-25T12:03:47.566Z,45.33
2023-02-25T12:07:25.671Z,33.85
2023-02-25T12:10:33.089Z,37.63
2023-02-25T12:14:20.665Z,37.33
2023-02-25T12:17:49.246Z,38.78
2023-02-25T12:20:56.694Z,40.53
2023-02-25T12:24:26.350Z,51.28
2023-02-25T12:28:02.968Z,46.28
2023-02-25T12:31:45.108Z,38.85
2023-02-25T12:35:08.159Z,35.70
2023-02-25T12:38:37.801Z,34.28
2023-02-25T12:41:47.462Z,54.45
2023-02-25T12:45:21.654Z,55.30
2023-02-25T12:48:57.011Z,73.00
2023-02-25T12:52:19.361Z,97.35
2023-02-25T12:55:23.987Z,92.38
2023-02-25T12:58:41.093Z,79.18
2023-02-25T13:02:04.586Z,57.85
2023-02-25T13:05:30.701Z,49.50
2023-02-25T13:08:53.824Z,89.80
2023-02-25T13:12:15.096Z,63.50
2023-02-25T13:15:44.047Z,68.00
2023-02-25T13:18:57.382Z,59.88
2023-02-25T13:22:25.265Z,67.22
2023-02-25T13:25:47.790Z,44.45
2023-02-25T13:28:58.555Z,40.10
2023-02-25T13:32:17.881Z,44.75
2023-02-25T13:35:43.489Z,47.58
2023-02-25T13:39:02.410Z,35.97
2023-02-25T13:42:12.119Z,35.13
2023-02-25T13:45:40.601Z,23.40
2023-02-25T13:48:59.875Z,28.08
2023-02-25T13:52:39.004Z,22.80
2023-02-25T13:56:24.818Z,22.80
2023-02-25T13:59:56.927Z,19.63
2023-02-25T14:03:22.458Z,15.57
2023-02-25T14:06:48.399Z,20.63
2023-02-25T14:10:16.956Z,23.80
2023-02-25T14:13:42.586Z,19.08
2023-02-25T14:16:57.514Z,17.20
2023-02-25T14:20:23.316Z,18.57
2023-02-25T14:23:42.612Z,15.73
2023-02-25T14:27:21.577Z,15.27
2023-02-25T14:30:25.930Z,16.52
2023-02-25T14:33:38.429Z,35.67
2023-02-25T14:36:48.446Z,79.35
2023-02-25T14:40:27.058Z,15.52
2023-02-25T14:43:36.501Z,12.35
2023-02-25T14:46:44.169Z,32.38
2023-02-25T14:50:00.888Z,17.70
2023-02-25T14:53:27.729Z,13.65
2023-02-25T14:56:58.651Z,14.70
2023-02-25T15:00:24.398Z,16.20
2023-02-25T15:03:31.994Z,14.68
2023-02-25T15:06:54.301Z,12.05
2023-02-25T15:10:19.877Z,12.55
2023-02-25T15:13:55.372Z,12.43
2023-02-25T15:17:47.283Z,12.10
2023-02-25T15:20:51.823Z,12.35
2023-02-25T15:23:56.242Z,13.17
2023-02-25T15:27:01.428Z,16.05
2023-02-25T15:30:09.336Z,15.90
2023-02-25T15:33:27.464Z,16.30
2023-02-25T15:36:50.750Z,15.13
2023-02-25T15:39:58.216Z,13.90
2023-02-25T15:43:27.267Z,13.38
2023-02-25T15:46:37.569Z,11.88
2023-02-25T15:49:47.562Z,15.27
2023-02-25T15:52:58.534Z,14.38
2023-02-25T15:56:05.803Z,11.30
2023-02-25T15:59:10.316Z,10.75
2023-02-25T16:02:34.249Z,12.63
2023-02-25T16:05:48.163Z,10.93
2023-02-25T16:09:11.656Z,12.32
2023-02-25T16:12:17.543Z,14.27
2023-02-25T16:15:39.665Z,17.98
2023-02-25T16:18:51.044Z,11.48
2023-02-25T16:22:09.077Z,12.18
2023-02-25T16:25:19.971Z,12.38
2023-02-25T16:29:07.939Z,10.88
2023-02-25T16:32:39.413Z,10.98
2023-02-25T16:36:06.899Z,11.85
2023-02-25T16:39:24.559Z,9.48
2023-02-25T16:42:34.080Z,8.68
2023-02-25T16:46:01.765Z,10.15
2023-02-25T16:49:24.713Z,9.27
2023-02-25T16:52:36.976Z,8.77
2023-02-25T16:55:42.106Z,13.15
2023-02-25T16:59:04.694Z,12.82
2023-02-25T17:02:17.999Z,10.63
2023-02-25T17:05:37.332Z,9.02
2023-02-25T17:08:47.664Z,9.40
2023-02-25T17:11:56.891Z,8.43
2023-02-25T17:15:05.344Z,8.18
2023-02-25T17:18:56.800Z,8.55
2023-02-25T17:22:02.376Z,9.73
2023-02-25T17:25:16.823Z,11.18
2023-02-25T17:28:28.005Z,14.65
2023-02-25T17:31:32.286Z,11.23
2023-02-25T17:34:37.826Z,12.30
2023-02-25T17:38:16.387Z,11.25
2023-02-25T17:41:28.075Z,10.25
2023-02-25T17:44:43.304Z,12.35
2023-02-25T17:47:47.994Z,13.40
2023-02-25T17:51:08.630Z,11.50
2023-02-25T17:54:21.034Z,9.55
2023-02-25T17:57:29.005Z,11.27
2023-02-25T18:00:37.048Z,14.02
2023-02-25T18:03:47.375Z,13.30
2023-02-25T18:06:52.235Z,13.27
2023-02-25T18:09:58.142Z,11.93
2023-02-25T18:13:05.612Z,11.90
2023-02-25T18:16:42.500Z,11.15
2023-02-25T18:19:47.132Z,11.90
2023-02-25T18:22:51.455Z,10.90
2023-02-25T18:26:31.618Z,16.55
2023-02-25T18:29:35.978Z,21.90
2023-02-25T18:32:40.399Z,32.20
2023-02-25T18:35:47.550Z,24.07
2023-02-25T18:38:53.968Z,18.40
2023-02-25T18:48:28.641Z,14.73
2023-02-25T18:51:33.334Z,16.27
2023-02-25T18:54:37.618Z,16.25
2023-02-25T18:57:41.993Z,15.80
2023-02-25T19:00:49.253Z,14.38
2023-02-25T19:04:00.255Z,15.05
2023-02-25T19:07:11.735Z,14.20
2023-02-25T19:10:27.608Z,15.10
2023-02-25T19:13:36.364Z,15.60
2023-02-25T19:16:41.189Z,14.93
2023-02-25T19:19:47.201Z,18.08
2023-02-25T19:22:54.060Z,14.48
2023-02-25T19:26:01.617Z,19.67
2023-02-25T19:29:06.320Z,18.38
2023-02-25T19:32:10.714Z,18.05
2023-02-25T19:35:15.051Z,12.23
2023-02-25T19:38:20.806Z,16.70
2023-02-25T19:41:25.369Z,15.52
2023-02-25T19:44:29.639Z,13.20
2023-02-25T19:47:44.077Z,14.45
2023-02-25T19:50:48.310Z,22.70
2023-02-25T19:53:52.962Z,18.65
2023-02-25T19:56:57.240Z,19.13
2023-02-25T20:00:01.571Z,16.50
2023-02-25T20:03:16.445Z,15.43
2023-02-25T20:06:23.881Z,16.73
2023-02-25T20:09:28.380Z,14.57
2023-02-25T20:12:32.496Z,12.73
2023-02-25T20:15:36.228Z,13.18
2023-02-25T20:18:41.588Z,10.93
2023-02-25T20:21:45.873Z,10.45
2023-02-25T20:24:50.327Z,11.27
2023-02-25T20:27:54.699Z,11.32
2023-02-25T20:31:07.412Z,10.97
2023-02-25T20:34:18.738Z,10.32
2023-02-25T20:37:30.302Z,10.05
2023-02-25T20:40:34.645Z,8.75
2023-02-25T20:43:39.251Z,11.37
2023-02-25T20:46:44.984Z,12.50
2023-02-25T20:49:50.190Z,13.15
2023-02-25T20:52:55.566Z,14.68
2023-02-25T20:56:00.520Z,17.73
2023-02-25T20:59:05.882Z,29.60
2023-02-25T21:05:15.484Z,18.17
2023-02-25T21:08:20.100Z,15.35
2023-02-25T21:11:25.666Z,18.33
2023-02-25T21:14:32.007Z,19.95
2023-02-25T21:17:36.288Z,21.35
2023-02-25T21:20:40.877Z,19.13
2023-02-25T21:23:45.671Z,23.30
2023-02-25T21:26:50.080Z,21.48
2023-02-25T21:29:54.089Z,17.60
2023-02-25T21:32:59.500Z,13.13
2023-02-25T21:36:04.487Z,14.45
2023-02-25T21:39:10.087Z,17.95
2023-02-25T21:42:14.021Z,18.42
2023-02-25T21:45:18.559Z,19.25
2023-02-25T21:48:24.910Z,20.52
2023-02-25T21:51:30.802Z,21.40
2023-02-25T21:54:35.571Z,22.30
2023-02-25T21:57:40.449Z,22.13
2023-02-25T22:00:49.319Z,28.63
2023-02-25T22:03:57.117Z,20.10
2023-02-25T22:10:05.311Z,26.35
2023-02-25T22:13:10.047Z,27.80
2023-02-25T22:16:15.905Z,20.25
2023-02-25T22:19:20.113Z,20.30
2023-02-25T22:22:24.329Z,19.40
2023-02-25T22:25:28.953Z,26.13
2023-02-25T22:28:34.007Z,24.60
2023-02-25T22:31:38.799Z,18.33
2023-02-25T22:34:43.215Z,31.20
2023-02-25T22:37:47.668Z,27.90
2023-02-25T22:40:52.358Z,24.00
2023-02-25T22:43:57.982Z,26.02
2023-02-25T22:47:02.587Z,27.83
2023-02-25T22:50:07.641Z,27.25
2023-02-25T22:53:12.315Z,27.58
2023-02-25T22:56:16.949Z,23.38
2023-02-25T22:59:21.194Z,23.55
2023-02-25T23:02:28.022Z,58.88
2023-02-25T23:05:33.083Z,38.75
2023-02-25T23:08:37.663Z,41.13
2023-02-25T23:11:44.505Z,53.22
2023-02-25T23:14:49.168Z,56.80
2023-02-25T23:17:53.666Z,58.38
2023-02-25T23:20:57.796Z,56.90
2023-02-25T23:24:05.441Z,53.03
2023-02-25T23:27:09.813Z,53.42
2023-02-25T23:30:14.656Z,58.47
2023-02-25T23:33:18.830Z,58.93
2023-02-25T23:36:23.990Z,69.70
2023-02-25T23:39:29.065Z,68.15
2023-02-25T23:42:33.161Z,66.78
2023-02-25T23:45:36.998Z,64.28
2023-02-25T23:48:40.993Z,68.25
2023-02-25T23:51:47.141Z,63.70
2023-02-25T23:54:51.984Z,44.65
2023-02-25T23:57:56.926Z,53.15
